sensor_id;sensor_type;location;lat;lon;timestamp;temperature;humidity
7708;DHT22;3896;48.758;8.888;2023-12-28T00:01:23;5.40;73.70
7708;DHT22;3896;48.758;8.888;2023-12-28T00:03:49;5.40;73.90
7708;DHT22;3896;48.758;8.888;2023-12-28T00:06:15;5.30;73.80
7708;DHT22;3896;48.758;8.888;2023-12-28T00:08:41;5.30;74.10
7708;DHT22;3896;48.758;8.888;2023-12-28T00:11:07;5.30;74.10
7708;DHT22;3896;48.758;8.888;2023-12-28T00:13:33;5.30;74.10
7708;DHT22;3896;48.758;8.888;2023-12-28T00:15:58;5.20;74.20
7708;DHT22;3896;48.758;8.888;2023-12-28T00:18:24;5.20;74.60
7708;DHT22;3896;48.758;8.888;2023-12-28T00:20:50;5.10;74.40
7708;DHT22;3896;48.758;8.888;2023-12-28T00:23:15;5.10;74.60
7708;DHT22;3896;48.758;8.888;2023-12-28T00:25:41;5.10;74.80
7708;DHT22;3896;48.758;8.888;2023-12-28T00:28:06;5.00;74.80
7708;DHT22;3896;48.758;8.888;2023-12-28T00:30:32;5.00;74.80
7708;DHT22;3896;48.758;8.888;2023-12-28T00:32:58;4.90;74.90
7708;DHT22;3896;48.758;8.888;2023-12-28T00:35:24;4.90;75.00
7708;DHT22;3896;48.758;8.888;2023-12-28T00:37:49;4.90;75.00
7708;DHT22;3896;48.758;8.888;2023-12-28T00:40:15;4.80;75.10
7708;DHT22;3896;48.758;8.888;2023-12-28T00:42:41;4.80;75.30
7708;DHT22;3896;48.758;8.888;2023-12-28T00:45:07;4.80;75.40
7708;DHT22;3896;48.758;8.888;2023-12-28T00:47:33;4.70;75.20
7708;DHT22;3896;48.758;8.888;2023-12-28T00:49:59;4.70;75.30
7708;DHT22;3896;48.758;8.888;2023-12-28T00:52:24;4.60;75.30
7708;DHT22;3896;48.758;8.888;2023-12-28T00:54:50;4.60;75.30
7708;DHT22;3896;48.758;8.888;2023-12-28T00:57:15;4.60;75.60
7708;DHT22;3896;48.758;8.888;2023-12-28T00:59:41;4.50;75.60
7708;DHT22;3896;48.758;8.888;2023-12-28T01:02:07;4.50;75.80
7708;DHT22;3896;48.758;8.888;2023-12-28T01:04:33;4.40;75.80
7708;DHT22;3896;48.758;8.888;2023-12-28T01:06:58;4.40;75.80
7708;DHT22;3896;48.758;8.888;2023-12-28T01:09:27;4.40;76.00
7708;DHT22;3896;48.758;8.888;2023-12-28T01:11:53;4.30;76.00
7708;DHT22;3896;48.758;8.888;2023-12-28T01:14:18;4.30;76.10
7708;DHT22;3896;48.758;8.888;2023-12-28T01:16:44;4.30;76.10
7708;DHT22;3896;48.758;8.888;2023-12-28T01:19:10;4.30;76.20
7708;DHT22;3896;48.758;8.888;2023-12-28T01:21:35;4.30;76.30
7708;DHT22;3896;48.758;8.888;2023-12-28T01:24:01;4.20;76.40
7708;DHT22;3896;48.758;8.888;2023-12-28T01:26:26;4.20;76.40
7708;DHT22;3896;48.758;8.888;2023-12-28T01:28:52;4.20;76.40
7708;DHT22;3896;48.758;8.888;2023-12-28T01:31:17;4.20;76.50
7708;DHT22;3896;48.758;8.888;2023-12-28T01:33:43;4.20;76.40
7708;DHT22;3896;48.758;8.888;2023-12-28T01:36:18;4.20;76.40
7708;DHT22;3896;48.758;8.888;2023-12-28T01:38:45;4.10;76.20
7708;DHT22;3896;48.758;8.888;2023-12-28T01:41:11;4.10;76.20
7708;DHT22;3896;48.758;8.888;2023-12-28T01:43:38;4.10;76.20
7708;DHT22;3896;48.758;8.888;2023-12-28T01:46:04;4.10;76.40
7708;DHT22;3896;48.758;8.888;2023-12-28T01:48:30;4.10;76.50
7708;DHT22;3896;48.758;8.888;2023-12-28T01:50:56;4.10;76.70
7708;DHT22;3896;48.758;8.888;2023-12-28T01:53:22;4.10;77.00
7708;DHT22;3896;48.758;8.888;2023-12-28T01:55:48;4.10;77.10
7708;DHT22;3896;48.758;8.888;2023-12-28T01:58:14;4.00;77.10
7708;DHT22;3896;48.758;8.888;2023-12-28T02:00:40;4.00;77.30
7708;DHT22;3896;48.758;8.888;2023-12-28T02:03:08;4.00;77.40
7708;DHT22;3896;48.758;8.888;2023-12-28T02:05:34;4.00;77.50
7708;DHT22;3896;48.758;8.888;2023-12-28T02:07:59;3.90;77.60
7708;DHT22;3896;48.758;8.888;2023-12-28T02:10:25;3.90;77.60
7708;DHT22;3896;48.758;8.888;2023-12-28T02:12:52;3.90;77.70
7708;DHT22;3896;48.758;8.888;2023-12-28T02:15:19;3.90;77.70
7708;DHT22;3896;48.758;8.888;2023-12-28T02:17:47;3.90;77.70
7708;DHT22;3896;48.758;8.888;2023-12-28T02:20:14;3.90;77.70
7708;DHT22;3896;48.758;8.888;2023-12-28T02:22:40;3.90;77.70
7708;DHT22;3896;48.758;8.888;2023-12-28T02:25:07;3.90;77.60
7708;DHT22;3896;48.758;8.888;2023-12-28T02:27:35;3.90;77.70
7708;DHT22;3896;48.758;8.888;2023-12-28T02:30:01;3.90;78.30
7708;DHT22;3896;48.758;8.888;2023-12-28T02:35:34;3.90;77.60
7708;DHT22;3896;48.758;8.888;2023-12-28T02:38:09;3.90;77.60
7708;DHT22;3896;48.758;8.888;2023-12-28T02:40:40;3.90;77.60
7708;DHT22;3896;48.758;8.888;2023-12-28T02:57:23;3.90;77.70
7708;DHT22;3896;48.758;8.888;2023-12-28T02:59:48;3.90;77.70
7708;DHT22;3896;48.758;8.888;2023-12-28T03:02:14;3.90;77.80
7708;DHT22;3896;48.758;8.888;2023-12-28T03:04:40;3.90;78.00
7708;DHT22;3896;48.758;8.888;2023-12-28T03:07:07;3.90;78.00
7708;DHT22;3896;48.758;8.888;2023-12-28T03:09:33;3.90;78.10
7708;DHT22;3896;48.758;8.888;2023-12-28T03:12:00;4.00;78.20
7708;DHT22;3896;48.758;8.888;2023-12-28T03:14:26;3.90;78.20
7708;DHT22;3896;48.758;8.888;2023-12-28T03:16:51;4.00;78.30
7708;DHT22;3896;48.758;8.888;2023-12-28T03:19:17;4.00;78.30
7708;DHT22;3896;48.758;8.888;2023-12-28T03:21:43;4.00;78.30
7708;DHT22;3896;48.758;8.888;2023-12-28T03:24:08;4.00;78.30
7708;DHT22;3896;48.758;8.888;2023-12-28T03:26:38;4.00;78.40
7708;DHT22;3896;48.758;8.888;2023-12-28T03:29:05;4.00;78.30
7708;DHT22;3896;48.758;8.888;2023-12-28T03:31:31;4.00;78.30
7708;DHT22;3896;48.758;8.888;2023-12-28T03:33:56;4.10;78.40
7708;DHT22;3896;48.758;8.888;2023-12-28T03:36:22;4.10;78.40
7708;DHT22;3896;48.758;8.888;2023-12-28T03:38:48;4.10;78.30
7708;DHT22;3896;48.758;8.888;2023-12-28T03:41:17;4.20;78.40
7708;DHT22;3896;48.758;8.888;2023-12-28T03:43:44;4.20;78.40
7708;DHT22;3896;48.758;8.888;2023-12-28T03:46:09;4.20;78.50
7708;DHT22;3896;48.758;8.888;2023-12-28T03:48:36;4.30;78.60
7708;DHT22;3896;48.758;8.888;2023-12-28T03:51:02;4.30;78.60
7708;DHT22;3896;48.758;8.888;2023-12-28T03:53:28;4.40;78.70
7708;DHT22;3896;48.758;8.888;2023-12-28T03:55:54;4.50;78.60
7708;DHT22;3896;48.758;8.888;2023-12-28T03:58:19;4.50;78.50
7708;DHT22;3896;48.758;8.888;2023-12-28T04:00:45;4.60;78.40
7708;DHT22;3896;48.758;8.888;2023-12-28T04:03:10;4.70;78.30
7708;DHT22;3896;48.758;8.888;2023-12-28T04:05:36;4.70;78.30
7708;DHT22;3896;48.758;8.888;2023-12-28T04:08:02;4.80;78.20
7708;DHT22;3896;48.758;8.888;2023-12-28T04:10:32;4.90;78.30
7708;DHT22;3896;48.758;8.888;2023-12-28T04:12:58;4.90;78.10
7708;DHT22;3896;48.758;8.888;2023-12-28T04:15:25;5.00;78.10
7708;DHT22;3896;48.758;8.888;2023-12-28T04:17:51;5.00;77.90
7708;DHT22;3896;48.758;8.888;2023-12-28T04:20:17;5.10;78.00
7708;DHT22;3896;48.758;8.888;2023-12-28T04:22:42;5.20;78.10
7708;DHT22;3896;48.758;8.888;2023-12-28T04:25:11;5.20;78.00
7708;DHT22;3896;48.758;8.888;2023-12-28T04:27:37;5.30;78.00
7708;DHT22;3896;48.758;8.888;2023-12-28T04:30:04;5.30;78.00
7708;DHT22;3896;48.758;8.888;2023-12-28T04:32:31;5.40;78.00
7708;DHT22;3896;48.758;8.888;2023-12-28T04:34:57;5.40;78.00
7708;DHT22;3896;48.758;8.888;2023-12-28T04:37:22;5.50;78.90
7708;DHT22;3896;48.758;8.888;2023-12-28T04:39:48;5.50;78.10
7708;DHT22;3896;48.758;8.888;2023-12-28T04:42:13;5.60;78.10
7708;DHT22;3896;48.758;8.888;2023-12-28T04:44:39;5.60;78.00
7708;DHT22;3896;48.758;8.888;2023-12-28T04:47:05;5.60;77.90
7708;DHT22;3896;48.758;8.888;2023-12-28T04:49:31;5.70;78.20
7708;DHT22;3896;48.758;8.888;2023-12-28T04:51:57;5.70;78.00
7708;DHT22;3896;48.758;8.888;2023-12-28T04:54:23;5.70;78.00
7708;DHT22;3896;48.758;8.888;2023-12-28T04:56:48;5.80;78.10
7708;DHT22;3896;48.758;8.888;2023-12-28T04:59:14;5.80;78.80
7708;DHT22;3896;48.758;8.888;2023-12-28T05:01:43;5.80;78.10
7708;DHT22;3896;48.758;8.888;2023-12-28T05:04:09;5.80;78.20
7708;DHT22;3896;48.758;8.888;2023-12-28T05:06:34;5.90;78.30
7708;DHT22;3896;48.758;8.888;2023-12-28T05:09:00;5.90;78.20
7708;DHT22;3896;48.758;8.888;2023-12-28T05:11:26;5.90;78.20
7708;DHT22;3896;48.758;8.888;2023-12-28T05:13:52;6.00;78.30
7708;DHT22;3896;48.758;8.888;2023-12-28T05:16:18;6.00;78.30
7708;DHT22;3896;48.758;8.888;2023-12-28T05:18:43;6.00;78.30
7708;DHT22;3896;48.758;8.888;2023-12-28T05:21:09;6.10;78.40
7708;DHT22;3896;48.758;8.888;2023-12-28T05:23:34;6.10;78.40
7708;DHT22;3896;48.758;8.888;2023-12-28T05:26:00;6.10;78.40
7708;DHT22;3896;48.758;8.888;2023-12-28T05:28:25;6.20;78.70
7708;DHT22;3896;48.758;8.888;2023-12-28T05:30:51;6.20;78.60
7708;DHT22;3896;48.758;8.888;2023-12-28T05:33:16;6.20;78.60
7708;DHT22;3896;48.758;8.888;2023-12-28T05:35:42;6.30;78.80
7708;DHT22;3896;48.758;8.888;2023-12-28T05:38:08;6.30;78.90
7708;DHT22;3896;48.758;8.888;2023-12-28T05:40:33;6.40;79.10
7708;DHT22;3896;48.758;8.888;2023-12-28T05:42:58;6.40;79.30
7708;DHT22;3896;48.758;8.888;2023-12-28T05:45:24;6.40;79.40
7708;DHT22;3896;48.758;8.888;2023-12-28T05:47:50;6.50;79.80
7708;DHT22;3896;48.758;8.888;2023-12-28T05:50:15;6.50;80.10
7708;DHT22;3896;48.758;8.888;2023-12-28T05:52:41;6.60;80.40
7708;DHT22;3896;48.758;8.888;2023-12-28T05:55:07;6.70;80.70
7708;DHT22;3896;48.758;8.888;2023-12-28T05:57:33;6.70;81.00
7708;DHT22;3896;48.758;8.888;2023-12-28T05:59:59;6.80;81.40
7708;DHT22;3896;48.758;8.888;2023-12-28T06:02:24;6.90;81.90
7708;DHT22;3896;48.758;8.888;2023-12-28T06:04:50;6.90;82.40
7708;DHT22;3896;48.758;8.888;2023-12-28T06:07:15;7.00;82.50
7708;DHT22;3896;48.758;8.888;2023-12-28T06:09:41;7.10;82.70
7708;DHT22;3896;48.758;8.888;2023-12-28T06:12:07;7.10;83.00
7708;DHT22;3896;48.758;8.888;2023-12-28T06:14:32;7.20;83.30
7708;DHT22;3896;48.758;8.888;2023-12-28T06:16:58;7.30;83.60
7708;DHT22;3896;48.758;8.888;2023-12-28T06:19:23;7.30;83.70
7708;DHT22;3896;48.758;8.888;2023-12-28T06:21:49;7.40;83.80
7708;DHT22;3896;48.758;8.888;2023-12-28T06:24:15;7.50;83.90
7708;DHT22;3896;48.758;8.888;2023-12-28T06:26:42;7.50;84.10
7708;DHT22;3896;48.758;8.888;2023-12-28T06:29:08;7.60;84.40
7708;DHT22;3896;48.758;8.888;2023-12-28T06:31:35;7.70;84.60
7708;DHT22;3896;48.758;8.888;2023-12-28T06:34:05;7.70;84.60
7708;DHT22;3896;48.758;8.888;2023-12-28T06:36:31;7.80;84.60
7708;DHT22;3896;48.758;8.888;2023-12-28T06:38:57;7.80;84.70
7708;DHT22;3896;48.758;8.888;2023-12-28T06:41:24;7.90;84.70
7708;DHT22;3896;48.758;8.888;2023-12-28T06:43:49;7.90;84.90
7708;DHT22;3896;48.758;8.888;2023-12-28T06:46:15;8.00;85.00
7708;DHT22;3896;48.758;8.888;2023-12-28T06:48:40;8.00;85.00
7708;DHT22;3896;48.758;8.888;2023-12-28T06:51:07;8.10;85.10
7708;DHT22;3896;48.758;8.888;2023-12-28T06:53:32;8.10;85.00
7708;DHT22;3896;48.758;8.888;2023-12-28T06:55:58;8.10;85.00
7708;DHT22;3896;48.758;8.888;2023-12-28T06:58:24;8.20;85.10
7708;DHT22;3896;48.758;8.888;2023-12-28T07:00:49;8.20;85.10
7708;DHT22;3896;48.758;8.888;2023-12-28T07:03:15;8.30;85.20
7708;DHT22;3896;48.758;8.888;2023-12-28T07:05:41;8.30;85.10
7708;DHT22;3896;48.758;8.888;2023-12-28T07:08:06;8.40;85.20
7708;DHT22;3896;48.758;8.888;2023-12-28T07:10:32;8.40;85.20
7708;DHT22;3896;48.758;8.888;2023-12-28T07:12:57;8.40;85.20
7708;DHT22;3896;48.758;8.888;2023-12-28T07:15:23;8.50;85.20
7708;DHT22;3896;48.758;8.888;2023-12-28T07:17:48;8.70;85.60
7708;DHT22;3896;48.758;8.888;2023-12-28T07:20:14;8.70;85.50
7708;DHT22;3896;48.758;8.888;2023-12-28T07:22:39;8.70;85.40
7708;DHT22;3896;48.758;8.888;2023-12-28T07:25:06;8.70;85.60
7708;DHT22;3896;48.758;8.888;2023-12-28T07:27:32;8.80;85.60
7708;DHT22;3896;48.758;8.888;2023-12-28T07:29:58;8.80;85.60
7708;DHT22;3896;48.758;8.888;2023-12-28T07:32:23;8.80;85.50
7708;DHT22;3896;48.758;8.888;2023-12-28T07:34:52;8.90;85.60
7708;DHT22;3896;48.758;8.888;2023-12-28T07:37:18;8.90;85.50
7708;DHT22;3896;48.758;8.888;2023-12-28T07:39:44;8.90;85.50
7708;DHT22;3896;48.758;8.888;2023-12-28T07:42:10;9.00;85.40
7708;DHT22;3896;48.758;8.888;2023-12-28T07:44:35;9.00;85.20
7708;DHT22;3896;48.758;8.888;2023-12-28T07:47:01;9.00;85.00
7708;DHT22;3896;48.758;8.888;2023-12-28T07:49:28;9.10;85.00
7708;DHT22;3896;48.758;8.888;2023-12-28T07:51:54;9.10;84.80
7708;DHT22;3896;48.758;8.888;2023-12-28T07:54:19;9.10;84.80
7708;DHT22;3896;48.758;8.888;2023-12-28T07:56:45;9.20;84.70
7708;DHT22;3896;48.758;8.888;2023-12-28T07:59:11;9.10;84.50
7708;DHT22;3896;48.758;8.888;2023-12-28T08:01:36;9.20;84.40
7708;DHT22;3896;48.758;8.888;2023-12-28T08:04:02;9.20;84.40
7708;DHT22;3896;48.758;8.888;2023-12-28T08:06:28;9.20;84.30
7708;DHT22;3896;48.758;8.888;2023-12-28T08:08:56;9.30;84.30
7708;DHT22;3896;48.758;8.888;2023-12-28T08:11:22;9.30;84.30
7708;DHT22;3896;48.758;8.888;2023-12-28T08:13:47;9.30;84.20
7708;DHT22;3896;48.758;8.888;2023-12-28T08:16:13;9.30;85.00
7708;DHT22;3896;48.758;8.888;2023-12-28T08:18:38;9.30;85.00
7708;DHT22;3896;48.758;8.888;2023-12-28T08:21:04;9.30;84.90
7708;DHT22;3896;48.758;8.888;2023-12-28T08:23:29;9.40;84.90
7708;DHT22;3896;48.758;8.888;2023-12-28T08:25:55;9.40;84.90
7708;DHT22;3896;48.758;8.888;2023-12-28T08:28:21;9.40;84.90
7708;DHT22;3896;48.758;8.888;2023-12-28T08:30:46;9.40;84.90
7708;DHT22;3896;48.758;8.888;2023-12-28T08:33:12;9.40;84.90
7708;DHT22;3896;48.758;8.888;2023-12-28T08:35:37;9.50;85.00
7708;DHT22;3896;48.758;8.888;2023-12-28T08:38:03;9.50;85.00
7708;DHT22;3896;48.758;8.888;2023-12-28T08:40:28;9.50;85.20
7708;DHT22;3896;48.758;8.888;2023-12-28T08:42:54;9.50;85.80
7708;DHT22;3896;48.758;8.888;2023-12-28T08:45:19;9.50;86.40
7708;DHT22;3896;48.758;8.888;2023-12-28T08:47:45;9.50;87.30
7708;DHT22;3896;48.758;8.888;2023-12-28T08:50:10;9.50;88.00
7708;DHT22;3896;48.758;8.888;2023-12-28T08:52:36;9.60;88.60
7708;DHT22;3896;48.758;8.888;2023-12-28T08:55:01;9.60;89.00
7708;DHT22;3896;48.758;8.888;2023-12-28T08:57:28;9.60;89.60
7708;DHT22;3896;48.758;8.888;2023-12-28T08:59:53;9.70;90.10
7708;DHT22;3896;48.758;8.888;2023-12-28T09:02:19;9.70;90.30
7708;DHT22;3896;48.758;8.888;2023-12-28T09:04:44;9.70;90.40
7708;DHT22;3896;48.758;8.888;2023-12-28T09:07:10;9.70;90.60
7708;DHT22;3896;48.758;8.888;2023-12-28T09:09:36;9.70;90.70
7708;DHT22;3896;48.758;8.888;2023-12-28T09:12:01;9.80;90.80
7708;DHT22;3896;48.758;8.888;2023-12-28T09:14:27;9.80;91.10
7708;DHT22;3896;48.758;8.888;2023-12-28T09:16:52;9.80;91.20
7708;DHT22;3896;48.758;8.888;2023-12-28T09:19:18;9.90;91.30
7708;DHT22;3896;48.758;8.888;2023-12-28T09:21:43;9.90;91.40
7708;DHT22;3896;48.758;8.888;2023-12-28T09:24:09;9.90;91.40
7708;DHT22;3896;48.758;8.888;2023-12-28T09:26:34;9.90;91.50
7708;DHT22;3896;48.758;8.888;2023-12-28T09:29:00;10.00;91.00
7708;DHT22;3896;48.758;8.888;2023-12-28T09:31:26;10.00;91.10
7708;DHT22;3896;48.758;8.888;2023-12-28T09:33:51;10.00;91.10
7708;DHT22;3896;48.758;8.888;2023-12-28T09:36:18;10.00;91.00
7708;DHT22;3896;48.758;8.888;2023-12-28T09:38:43;10.10;91.00
7708;DHT22;3896;48.758;8.888;2023-12-28T09:41:14;10.10;91.00
7708;DHT22;3896;48.758;8.888;2023-12-28T09:43:53;10.10;90.90
7708;DHT22;3896;48.758;8.888;2023-12-28T09:46:20;10.20;90.80
7708;DHT22;3896;48.758;8.888;2023-12-28T09:48:46;10.20;90.70
7708;DHT22;3896;48.758;8.888;2023-12-28T09:51:12;10.20;90.50
7708;DHT22;3896;48.758;8.888;2023-12-28T09:53:38;10.30;90.30
7708;DHT22;3896;48.758;8.888;2023-12-28T09:56:04;10.30;90.10
7708;DHT22;3896;48.758;8.888;2023-12-28T09:58:31;10.30;90.00
7708;DHT22;3896;48.758;8.888;2023-12-28T10:00:59;10.40;89.70
7708;DHT22;3896;48.758;8.888;2023-12-28T10:03:26;10.40;89.20
7708;DHT22;3896;48.758;8.888;2023-12-28T10:05:51;10.40;88.80
7708;DHT22;3896;48.758;8.888;2023-12-28T10:08:17;10.50;88.50
7708;DHT22;3896;48.758;8.888;2023-12-28T10:10:44;10.50;88.30
7708;DHT22;3896;48.758;8.888;2023-12-28T10:13:16;10.60;88.40
7708;DHT22;3896;48.758;8.888;2023-12-28T10:15:42;10.60;88.50
7708;DHT22;3896;48.758;8.888;2023-12-28T10:18:09;10.60;88.40
7708;DHT22;3896;48.758;8.888;2023-12-28T10:20:34;10.60;88.50
7708;DHT22;3896;48.758;8.888;2023-12-28T10:23:00;10.70;88.60
7708;DHT22;3896;48.758;8.888;2023-12-28T10:25:29;10.70;88.60
7708;DHT22;3896;48.758;8.888;2023-12-28T10:27:55;10.70;88.60
7708;DHT22;3896;48.758;8.888;2023-12-28T10:30:21;10.80;88.80
7708;DHT22;3896;48.758;8.888;2023-12-28T10:32:47;10.80;88.90
7708;DHT22;3896;48.758;8.888;2023-12-28T10:35:13;10.80;88.90
7708;DHT22;3896;48.758;8.888;2023-12-28T10:37:42;10.90;89.00
7708;DHT22;3896;48.758;8.888;2023-12-28T10:40:14;10.90;89.00
7708;DHT22;3896;48.758;8.888;2023-12-28T10:43:01;10.90;89.00
7708;DHT22;3896;48.758;8.888;2023-12-28T10:45:31;10.90;88.80
7708;DHT22;3896;48.758;8.888;2023-12-28T10:50:28;11.00;88.90
7708;DHT22;3896;48.758;8.888;2023-12-28T10:53:00;11.10;89.10
7708;DHT22;3896;48.758;8.888;2023-12-28T10:56:09;11.10;89.10
7708;DHT22;3896;48.758;8.888;2023-12-28T10:59:17;11.20;89.20
7708;DHT22;3896;48.758;8.888;2023-12-28T11:01:47;11.20;89.00
7708;DHT22;3896;48.758;8.888;2023-12-28T11:04:40;11.30;89.20
7708;DHT22;3896;48.758;8.888;2023-12-28T11:07:09;11.30;88.90
7708;DHT22;3896;48.758;8.888;2023-12-28T11:09:35;11.40;89.20
7708;DHT22;3896;48.758;8.888;2023-12-28T11:12:03;11.50;89.20
7708;DHT22;3896;48.758;8.888;2023-12-28T11:14:31;11.50;89.10
7708;DHT22;3896;48.758;8.888;2023-12-28T11:16:59;11.60;89.30
7708;DHT22;3896;48.758;8.888;2023-12-28T11:19:27;11.60;89.40
7708;DHT22;3896;48.758;8.888;2023-12-28T11:21:53;11.60;89.60
7708;DHT22;3896;48.758;8.888;2023-12-28T11:24:21;11.70;89.80
7708;DHT22;3896;48.758;8.888;2023-12-28T11:26:52;11.70;90.00
7708;DHT22;3896;48.758;8.888;2023-12-28T11:29:20;11.70;90.00
7708;DHT22;3896;48.758;8.888;2023-12-28T11:31:54;11.70;90.00
7708;DHT22;3896;48.758;8.888;2023-12-28T11:34:25;11.70;90.00
7708;DHT22;3896;48.758;8.888;2023-12-28T11:36:53;11.80;90.00
7708;DHT22;3896;48.758;8.888;2023-12-28T11:39:30;11.80;90.00
7708;DHT22;3896;48.758;8.888;2023-12-28T11:42:03;11.80;90.10
7708;DHT22;3896;48.758;8.888;2023-12-28T11:44:29;11.80;90.00
7708;DHT22;3896;48.758;8.888;2023-12-28T11:46:55;11.80;90.00
7708;DHT22;3896;48.758;8.888;2023-12-28T11:49:26;11.80;89.90
7708;DHT22;3896;48.758;8.888;2023-12-28T11:51:57;11.80;89.80
7708;DHT22;3896;48.758;8.888;2023-12-28T11:54:24;11.80;89.60
7708;DHT22;3896;48.758;8.888;2023-12-28T11:56:50;11.80;89.40
7708;DHT22;3896;48.758;8.888;2023-12-28T11:59:16;11.90;89.50
7708;DHT22;3896;48.758;8.888;2023-12-28T12:01:42;11.90;89.50
7708;DHT22;3896;48.758;8.888;2023-12-28T12:04:07;11.90;89.40
7708;DHT22;3896;48.758;8.888;2023-12-28T12:06:33;11.90;89.30
7708;DHT22;3896;48.758;8.888;2023-12-28T12:08:58;11.90;89.40
7708;DHT22;3896;48.758;8.888;2023-12-28T12:11:24;11.90;89.40
7708;DHT22;3896;48.758;8.888;2023-12-28T12:13:51;11.90;89.60
7708;DHT22;3896;48.758;8.888;2023-12-28T12:16:18;11.90;89.60
7708;DHT22;3896;48.758;8.888;2023-12-28T12:18:44;11.90;89.80
7708;DHT22;3896;48.758;8.888;2023-12-28T12:21:09;11.90;89.90
7708;DHT22;3896;48.758;8.888;2023-12-28T12:23:35;11.90;90.00
7708;DHT22;3896;48.758;8.888;2023-12-28T12:26:01;11.90;90.00
7708;DHT22;3896;48.758;8.888;2023-12-28T12:28:29;11.90;90.00
7708;DHT22;3896;48.758;8.888;2023-12-28T12:30:55;11.90;90.10
7708;DHT22;3896;48.758;8.888;2023-12-28T12:33:22;11.90;90.20
7708;DHT22;3896;48.758;8.888;2023-12-28T12:35:49;11.90;90.20
7708;DHT22;3896;48.758;8.888;2023-12-28T12:38:15;12.00;90.40
7708;DHT22;3896;48.758;8.888;2023-12-28T12:40:41;12.00;90.40
7708;DHT22;3896;48.758;8.888;2023-12-28T12:43:07;12.00;90.70
7708;DHT22;3896;48.758;8.888;2023-12-28T12:45:35;12.00;90.80
7708;DHT22;3896;48.758;8.888;2023-12-28T12:48:05;12.00;90.80
7708;DHT22;3896;48.758;8.888;2023-12-28T12:50:32;12.00;90.90
7708;DHT22;3896;48.758;8.888;2023-12-28T12:52:59;12.00;91.10
7708;DHT22;3896;48.758;8.888;2023-12-28T12:55:25;12.00;91.30
7708;DHT22;3896;48.758;8.888;2023-12-28T12:57:51;12.00;91.50
7708;DHT22;3896;48.758;8.888;2023-12-28T13:00:21;12.00;91.60
7708;DHT22;3896;48.758;8.888;2023-12-28T13:02:47;12.00;91.80
7708;DHT22;3896;48.758;8.888;2023-12-28T13:05:12;12.00;91.90
7708;DHT22;3896;48.758;8.888;2023-12-28T13:07:38;12.00;92.10
7708;DHT22;3896;48.758;8.888;2023-12-28T13:10:04;12.10;92.20
7708;DHT22;3896;48.758;8.888;2023-12-28T13:12:31;12.00;92.20
7708;DHT22;3896;48.758;8.888;2023-12-28T13:14:57;12.10;92.20
7708;DHT22;3896;48.758;8.888;2023-12-28T13:17:23;12.10;92.30
7708;DHT22;3896;48.758;8.888;2023-12-28T13:19:49;12.10;92.30
7708;DHT22;3896;48.758;8.888;2023-12-28T13:22:14;12.10;92.40
7708;DHT22;3896;48.758;8.888;2023-12-28T13:24:40;12.10;92.50
7708;DHT22;3896;48.758;8.888;2023-12-28T13:27:06;12.10;92.50
7708;DHT22;3896;48.758;8.888;2023-12-28T13:29:31;12.10;92.70
7708;DHT22;3896;48.758;8.888;2023-12-28T13:31:57;12.10;92.60
7708;DHT22;3896;48.758;8.888;2023-12-28T13:34:23;12.10;92.60
7708;DHT22;3896;48.758;8.888;2023-12-28T13:36:49;12.10;92.60
7708;DHT22;3896;48.758;8.888;2023-12-28T13:39:14;12.10;92.60
7708;DHT22;3896;48.758;8.888;2023-12-28T13:41:41;12.10;92.70
7708;DHT22;3896;48.758;8.888;2023-12-28T13:44:06;12.10;92.80
7708;DHT22;3896;48.758;8.888;2023-12-28T13:46:36;12.10;92.80
7708;DHT22;3896;48.758;8.888;2023-12-28T13:49:01;12.10;92.80
7708;DHT22;3896;48.758;8.888;2023-12-28T13:51:29;12.10;92.90
7708;DHT22;3896;48.758;8.888;2023-12-28T13:53:55;12.10;92.90
7708;DHT22;3896;48.758;8.888;2023-12-28T13:56:21;12.00;93.00
7708;DHT22;3896;48.758;8.888;2023-12-28T13:58:46;12.00;93.10
7708;DHT22;3896;48.758;8.888;2023-12-28T14:01:12;12.00;93.20
7708;DHT22;3896;48.758;8.888;2023-12-28T14:03:38;12.00;93.30
7708;DHT22;3896;48.758;8.888;2023-12-28T14:06:04;12.00;93.30
7708;DHT22;3896;48.758;8.888;2023-12-28T14:08:30;12.00;93.40
7708;DHT22;3896;48.758;8.888;2023-12-28T14:10:55;12.00;93.50
7708;DHT22;3896;48.758;8.888;2023-12-28T14:13:21;12.00;93.70
7708;DHT22;3896;48.758;8.888;2023-12-28T14:15:47;12.00;93.70
7708;DHT22;3896;48.758;8.888;2023-12-28T14:18:13;12.00;93.80
7708;DHT22;3896;48.758;8.888;2023-12-28T14:20:38;12.00;93.80
7708;DHT22;3896;48.758;8.888;2023-12-28T14:23:04;11.90;93.90
7708;DHT22;3896;48.758;8.888;2023-12-28T14:25:30;11.90;93.90
7708;DHT22;3896;48.758;8.888;2023-12-28T14:27:56;11.90;93.90
7708;DHT22;3896;48.758;8.888;2023-12-28T14:30:22;11.90;93.80
7708;DHT22;3896;48.758;8.888;2023-12-28T14:32:48;11.90;93.90
7708;DHT22;3896;48.758;8.888;2023-12-28T14:35:14;11.90;93.90
7708;DHT22;3896;48.758;8.888;2023-12-28T14:37:46;11.90;94.00
7708;DHT22;3896;48.758;8.888;2023-12-28T14:40:12;11.90;94.00
7708;DHT22;3896;48.758;8.888;2023-12-28T14:42:38;12.00;94.10
7708;DHT22;3896;48.758;8.888;2023-12-28T14:45:04;11.90;94.10
7708;DHT22;3896;48.758;8.888;2023-12-28T14:47:30;11.90;94.10
7708;DHT22;3896;48.758;8.888;2023-12-28T14:49:56;11.90;94.10
7708;DHT22;3896;48.758;8.888;2023-12-28T14:52:23;11.90;94.20
7708;DHT22;3896;48.758;8.888;2023-12-28T14:54:51;11.90;94.20
7708;DHT22;3896;48.758;8.888;2023-12-28T14:57:19;11.90;94.30
7708;DHT22;3896;48.758;8.888;2023-12-28T14:59:45;11.90;94.30
7708;DHT22;3896;48.758;8.888;2023-12-28T15:02:10;11.90;94.30
7708;DHT22;3896;48.758;8.888;2023-12-28T15:04:36;11.90;94.30
7708;DHT22;3896;48.758;8.888;2023-12-28T15:07:03;11.90;94.30
7708;DHT22;3896;48.758;8.888;2023-12-28T15:09:29;11.90;94.40
7708;DHT22;3896;48.758;8.888;2023-12-28T15:11:55;11.90;94.40
7708;DHT22;3896;48.758;8.888;2023-12-28T15:14:21;11.90;94.50
7708;DHT22;3896;48.758;8.888;2023-12-28T15:16:47;11.80;94.50
7708;DHT22;3896;48.758;8.888;2023-12-28T15:19:13;11.80;94.50
7708;DHT22;3896;48.758;8.888;2023-12-28T15:21:40;11.80;94.60
7708;DHT22;3896;48.758;8.888;2023-12-28T15:24:06;11.80;94.70
7708;DHT22;3896;48.758;8.888;2023-12-28T15:26:33;11.80;94.70
7708;DHT22;3896;48.758;8.888;2023-12-28T15:28:58;11.80;94.60
7708;DHT22;3896;48.758;8.888;2023-12-28T15:31:24;11.70;94.50
7708;DHT22;3896;48.758;8.888;2023-12-28T15:33:50;11.70;94.50
7708;DHT22;3896;48.758;8.888;2023-12-28T15:36:15;11.70;94.60
7708;DHT22;3896;48.758;8.888;2023-12-28T15:38:41;11.70;94.60
7708;DHT22;3896;48.758;8.888;2023-12-28T15:41:08;11.70;95.00
7708;DHT22;3896;48.758;8.888;2023-12-28T15:43:34;11.70;94.70
7708;DHT22;3896;48.758;8.888;2023-12-28T15:46:00;11.60;94.60
7708;DHT22;3896;48.758;8.888;2023-12-28T15:48:26;11.60;94.60
7708;DHT22;3896;48.758;8.888;2023-12-28T15:50:51;11.60;94.70
7708;DHT22;3896;48.758;8.888;2023-12-28T15:53:17;11.60;95.00
7708;DHT22;3896;48.758;8.888;2023-12-28T15:55:42;11.60;94.60
7708;DHT22;3896;48.758;8.888;2023-12-28T15:58:08;11.50;94.50
7708;DHT22;3896;48.758;8.888;2023-12-28T16:00:33;11.50;94.40
7708;DHT22;3896;48.758;8.888;2023-12-28T16:02:59;11.40;94.40
7708;DHT22;3896;48.758;8.888;2023-12-28T16:05:24;11.40;94.40
7708;DHT22;3896;48.758;8.888;2023-12-28T16:07:51;11.40;94.40
7708;DHT22;3896;48.758;8.888;2023-12-28T16:10:17;11.40;94.40
7708;DHT22;3896;48.758;8.888;2023-12-28T16:12:42;11.30;94.30
7708;DHT22;3896;48.758;8.888;2023-12-28T16:15:08;11.30;94.30
7708;DHT22;3896;48.758;8.888;2023-12-28T16:17:34;11.30;94.30
7708;DHT22;3896;48.758;8.888;2023-12-28T16:20:00;11.30;94.30
7708;DHT22;3896;48.758;8.888;2023-12-28T16:22:26;11.20;94.30
7708;DHT22;3896;48.758;8.888;2023-12-28T16:24:51;11.20;94.30
7708;DHT22;3896;48.758;8.888;2023-12-28T16:27:17;11.20;94.30